createdAt,value
2019-04-06T00:00:15.824Z,986.2
2019-04-06T00:03:15.845Z,986.1
2019-04-06T00:06:15.917Z,986.1
2019-04-06T00:09:15.085Z,986.2
2019-04-06T00:12:15.800Z,986.2
2019-04-06T00:15:15.560Z,986.1
2019-04-06T00:18:15.459Z,986.1
2019-04-06T00:21:15.257Z,986.1
2019-04-06T00:24:15.710Z,986.0
2019-04-06T00:27:15.065Z,986.0
2019-04-06T00:30:15.788Z,986.1
2019-04-06T00:33:15.014Z,986.0
2019-04-06T00:36:15.640Z,986.0
2019-04-06T00:39:15.228Z,986.0
2019-04-06T00:42:15.886Z,986.0
2019-04-06T00:45:15.045Z,986.0
2019-04-06T00:48:15.709Z,986.0
2019-04-06T00:51:15.667Z,985.9
2019-04-06T00:54:17.005Z,986.0
2019-04-06T00:57:15.471Z,986.0
2019-04-06T01:00:15.169Z,985.9
2019-04-06T01:03:15.034Z,986.0
2019-04-06T01:06:15.851Z,985.9
2019-04-06T01:09:14.951Z,985.9
2019-04-06T01:12:15.781Z,985.9
2019-04-06T01:15:15.730Z,985.9
2019-04-06T01:18:15.499Z,985.9
2019-04-06T01:21:15.376Z,985.8
2019-04-06T01:24:15.110Z,985.8
2019-04-06T01:27:15.905Z,985.8
2019-04-06T01:30:15.604Z,985.7
2019-04-06T01:33:15.441Z,985.8
2019-04-06T01:36:15.219Z,985.8
2019-04-06T01:39:15.868Z,985.8
2019-04-06T01:42:16.021Z,985.8
2019-04-06T01:45:15.190Z,985.8
2019-04-06T01:48:15.826Z,985.8
2019-04-06T01:51:15.537Z,985.8
2019-04-06T01:54:15.303Z,985.7
2019-04-06T01:57:15.106Z,985.8
2019-04-06T02:00:15.789Z,985.8
2019-04-06T02:03:15.575Z,985.8
2019-04-06T02:06:15.275Z,985.7
2019-04-06T02:09:15.021Z,985.7
2019-04-06T02:12:15.759Z,985.7
2019-04-06T02:15:15.560Z,985.7
2019-04-06T02:18:15.350Z,985.7
2019-04-06T02:21:15.304Z,985.7
2019-04-06T02:24:15.811Z,985.7
2019-04-06T02:27:15.435Z,985.7
2019-04-06T02:30:15.023Z,985.6
2019-04-06T02:33:15.976Z,985.7
2019-04-06T02:36:15.254Z,985.6
2019-04-06T02:39:15.466Z,985.7
2019-04-06T02:42:15.790Z,985.7
2019-04-06T02:45:15.766Z,985.7
2019-04-06T02:48:15.460Z,985.8
2019-04-06T02:51:15.139Z,985.7
2019-04-06T02:54:16.020Z,985.7
2019-04-06T02:57:15.392Z,985.7
2019-04-06T03:00:15.389Z,985.7
2019-04-06T03:03:15.430Z,985.8
2019-04-06T03:06:15.528Z,985.7
2019-04-06T03:09:15.634Z,985.8
2019-04-06T03:12:15.309Z,985.8
2019-04-06T03:15:15.092Z,985.8
2019-04-06T03:18:14.978Z,985.7
2019-04-06T03:21:16.128Z,985.7
2019-04-06T03:24:15.559Z,985.7
2019-04-06T03:27:15.348Z,985.7
2019-04-06T03:30:15.815Z,985.7
2019-04-06T03:33:15.963Z,985.7
2019-04-06T03:36:15.559Z,985.7
2019-04-06T03:39:15.263Z,985.7
2019-04-06T03:42:15.919Z,985.7
2019-04-06T03:45:16.029Z,985.6
2019-04-06T03:48:15.526Z,985.7
2019-04-06T03:51:15.245Z,985.7
2019-04-06T03:54:15.148Z,985.7
2019-04-06T03:57:16.977Z,985.7
2019-04-06T04:00:15.409Z,985.7
2019-04-06T04:03:15.194Z,985.7
2019-04-06T04:06:14.908Z,985.7
2019-04-06T04:09:16.057Z,985.8
2019-04-06T04:12:15.111Z,985.8
2019-04-06T04:15:15.944Z,985.8
2019-04-06T04:18:15.906Z,985.8
2019-04-06T04:21:15.042Z,985.7
2019-04-06T04:24:15.902Z,985.8
2019-04-06T04:27:27.667Z,985.8
2019-04-06T04:30:30.535Z,985.8
2019-04-06T04:33:15.957Z,985.9
2019-04-06T04:36:15.163Z,985.9
2019-04-06T04:39:15.325Z,985.9
2019-04-06T04:42:16.000Z,985.9
2019-04-06T04:45:15.941Z,985.9
2019-04-06T04:48:15.863Z,986.0
2019-04-06T04:51:15.700Z,985.9
2019-04-06T04:54:15.578Z,986.0
2019-04-06T04:57:15.227Z,986.0
2019-04-06T05:00:16.145Z,986.0
2019-04-06T05:03:15.288Z,986.0
2019-04-06T05:06:15.322Z,986.0
2019-04-06T05:09:15.284Z,986.1
2019-04-06T05:12:15.027Z,986.1
2019-04-06T05:15:15.863Z,986.1
2019-04-06T05:18:15.913Z,986.1
2019-04-06T05:21:15.605Z,986.2
2019-04-06T05:24:15.471Z,986.2
2019-04-06T05:27:15.426Z,986.3
2019-04-06T05:30:15.065Z,986.3
2019-04-06T05:33:15.192Z,986.3
2019-04-06T05:36:15.170Z,986.3
2019-04-06T05:39:15.196Z,986.3
2019-04-06T05:42:14.970Z,986.4
2019-04-06T05:45:15.135Z,986.4
2019-04-06T05:48:15.301Z,986.4
2019-04-06T05:54:15.179Z,986.5
2019-04-06T05:57:15.133Z,986.5
2019-04-06T06:00:15.574Z,986.6
2019-04-06T06:03:15.604Z,986.6
2019-04-06T06:06:15.225Z,986.6
2019-04-06T06:09:15.510Z,986.6
2019-04-06T06:12:15.111Z,986.7
2019-04-06T06:15:15.132Z,986.6
2019-04-06T06:18:25.419Z,986.6
2019-04-06T06:24:15.418Z,986.6
2019-04-06T06:27:15.184Z,986.6
2019-04-06T06:30:15.080Z,986.6
2019-04-06T06:33:15.474Z,986.6
2019-04-06T06:36:15.487Z,986.7
2019-04-06T06:39:15.567Z,986.7
2019-04-06T06:42:15.238Z,986.7
2019-04-06T06:45:15.169Z,986.7
2019-04-06T06:48:15.303Z,986.7
2019-04-06T06:51:15.197Z,986.7
2019-04-06T06:54:15.236Z,986.7
2019-04-06T06:57:15.160Z,986.7
2019-04-06T07:00:14.967Z,986.6
2019-04-06T07:03:15.991Z,986.6
2019-04-06T07:06:15.650Z,986.6
2019-04-06T07:09:15.424Z,986.7
2019-04-06T07:12:15.293Z,986.6
2019-04-06T07:15:15.194Z,986.6
2019-04-06T07:18:15.443Z,986.6
2019-04-06T07:21:16.641Z,986.7
2019-04-06T07:24:16.024Z,986.6
2019-04-06T07:27:15.958Z,986.6
2019-04-06T07:30:15.616Z,986.6
2019-04-06T07:33:15.542Z,986.6
2019-04-06T07:36:15.374Z,986.6
2019-04-06T07:39:15.286Z,986.6
2019-04-06T07:42:15.818Z,986.6
2019-04-06T07:45:15.483Z,986.6
2019-04-06T07:48:15.515Z,986.6
2019-04-06T07:51:15.269Z,986.6
2019-04-06T07:54:15.155Z,986.5
2019-04-06T07:57:15.331Z,986.5
2019-04-06T08:00:17.156Z,986.5
2019-04-06T08:03:15.041Z,986.5
2019-04-06T08:06:15.280Z,986.5
2019-04-06T08:09:15.197Z,986.4
2019-04-06T08:12:15.394Z,986.4
2019-04-06T08:15:15.382Z,986.5
2019-04-06T08:18:15.426Z,986.5
2019-04-06T08:21:15.790Z,986.5
2019-04-06T08:24:15.614Z,986.4
2019-04-06T08:27:15.259Z,986.5
2019-04-06T08:30:15.489Z,986.4
2019-04-06T08:33:15.456Z,986.4
2019-04-06T08:36:15.288Z,986.4
2019-04-06T08:39:15.089Z,986.4
2019-04-06T08:42:14.914Z,986.4
2019-04-06T08:45:15.362Z,986.4
2019-04-06T08:48:15.378Z,986.4
2019-04-06T08:51:15.513Z,986.5
2019-04-06T08:54:15.354Z,986.4
2019-04-06T09:00:17.298Z,986.2
2019-04-06T09:03:23.812Z,986.2
2019-04-06T09:06:15.814Z,986.2
2019-04-06T09:18:15.220Z,986.1
2019-04-06T09:21:16.182Z,986.1
2019-04-06T09:24:15.420Z,986.1
2019-04-06T09:27:15.128Z,986.2
2019-04-06T09:30:15.990Z,986.1
2019-04-06T09:33:15.012Z,986.0
2019-04-06T09:36:15.266Z,986.0
2019-04-06T09:39:15.134Z,986.0
2019-04-06T09:42:15.163Z,986.0
2019-04-06T09:45:15.214Z,986.0
2019-04-06T09:48:15.362Z,986.0
2019-04-06T09:51:16.102Z,986.0
2019-04-06T09:54:15.710Z,985.9
2019-04-06T09:57:15.835Z,985.9
2019-04-06T10:00:15.141Z,985.8
2019-04-06T10:03:15.411Z,985.9
2019-04-06T10:06:14.957Z,985.9
2019-04-06T10:09:15.997Z,985.8
2019-04-06T10:12:15.920Z,985.8
2019-04-06T10:15:15.406Z,985.9
2019-04-06T10:18:15.294Z,985.9
2019-04-06T10:21:15.833Z,985.9
2019-04-06T10:24:15.738Z,985.9
2019-04-06T10:27:16.254Z,985.9
2019-04-06T10:30:15.281Z,985.9
2019-04-06T10:33:15.381Z,985.9
2019-04-06T10:36:15.975Z,985.9
2019-04-06T10:39:15.783Z,985.8
2019-04-06T10:42:15.952Z,985.9
2019-04-06T10:45:15.459Z,985.8
2019-04-06T10:48:15.723Z,985.8
2019-04-06T10:51:15.305Z,985.7
2019-04-06T10:54:16.024Z,985.7
2019-04-06T10:57:15.255Z,985.6
2019-04-06T11:00:15.505Z,985.7
2019-04-06T11:03:15.864Z,985.6
2019-04-06T11:06:15.793Z,985.6
2019-04-06T11:09:15.769Z,985.6
2019-04-06T11:12:15.209Z,985.5
2019-04-06T11:15:15.876Z,985.5
2019-04-06T11:18:15.671Z,985.5
2019-04-06T11:21:15.585Z,985.4
2019-04-06T11:24:15.111Z,985.4
2019-04-06T11:27:15.519Z,985.3
2019-04-06T11:30:16.780Z,985.4
2019-04-06T11:33:15.455Z,985.3
2019-04-06T11:36:15.860Z,985.2
2019-04-06T11:39:15.885Z,985.3
2019-04-06T11:42:16.029Z,985.3
2019-04-06T11:45:15.434Z,985.2
2019-04-06T11:48:15.019Z,985.2
2019-04-06T11:51:15.036Z,985.2
2019-04-06T11:54:15.932Z,985.2
2019-04-06T11:57:15.714Z,985.2
2019-04-06T12:00:25.902Z,985.2
2019-04-06T12:03:15.736Z,985.3
2019-04-06T12:06:15.687Z,985.2
2019-04-06T12:09:15.823Z,985.3
2019-04-06T12:12:16.071Z,985.2
2019-04-06T12:15:15.997Z,985.2
2019-04-06T12:18:17.563Z,985.1
2019-04-06T12:21:15.539Z,985.1
2019-04-06T12:24:15.247Z,985.2
2019-04-06T12:27:15.680Z,985.1
2019-04-06T12:30:15.247Z,985.2
2019-04-06T12:33:14.998Z,985.1
2019-04-06T12:36:15.082Z,985.1
2019-04-06T12:39:15.420Z,985.1
2019-04-06T12:42:15.669Z,985.1
2019-04-06T12:45:15.855Z,985.0
2019-04-06T12:48:15.211Z,985.0
2019-04-06T12:51:15.342Z,985.1
2019-04-06T12:54:17.843Z,985.0
2019-04-06T12:57:15.515Z,985.1
2019-04-06T13:00:15.736Z,985.0
2019-04-06T13:03:15.079Z,985.1
2019-04-06T13:06:15.395Z,985.1
2019-04-06T13:09:15.952Z,985.1
2019-04-06T13:12:15.194Z,985.1
2019-04-06T13:15:15.486Z,985.0
2019-04-06T13:18:15.228Z,985.0
2019-04-06T13:21:15.930Z,984.9
2019-04-06T13:24:15.660Z,985.0
2019-04-06T13:27:15.468Z,985.0
2019-04-06T13:30:15.437Z,985.0
2019-04-06T13:33:15.465Z,985.0
2019-04-06T13:36:15.014Z,985.0
2019-04-06T13:39:15.915Z,985.0
2019-04-06T13:42:15.842Z,985.0
2019-04-06T13:45:15.003Z,985.0
2019-04-06T13:48:15.754Z,985.0
2019-04-06T13:51:15.785Z,985.0
2019-04-06T13:54:15.452Z,984.9
2019-04-06T13:57:15.624Z,985.0
2019-04-06T14:00:15.797Z,985.0
2019-04-06T14:03:15.628Z,985.0
2019-04-06T14:06:15.419Z,985.0
2019-04-06T14:09:16.097Z,985.0
2019-04-06T14:12:15.497Z,984.9
2019-04-06T14:15:15.706Z,984.9
2019-04-06T14:18:15.785Z,984.9
2019-04-06T14:21:15.168Z,984.9
2019-04-06T14:24:15.724Z,984.9
2019-04-06T14:27:16.156Z,984.8
2019-04-06T14:30:15.810Z,984.9
2019-04-06T14:33:15.533Z,984.8
2019-04-06T14:36:16.125Z,984.8
2019-04-06T14:39:15.550Z,984.9
2019-04-06T14:42:15.179Z,984.9
2019-04-06T14:45:15.786Z,984.7
2019-04-06T14:48:15.700Z,984.8
2019-04-06T14:51:15.633Z,984.8
2019-04-06T14:54:15.991Z,984.7
2019-04-06T14:57:15.755Z,984.7
2019-04-06T15:00:15.479Z,984.6
2019-04-06T15:03:15.879Z,984.6
2019-04-06T15:06:15.910Z,984.6
2019-04-06T15:09:15.905Z,984.5
2019-04-06T15:12:15.685Z,984.4
2019-04-06T15:15:15.175Z,984.4
2019-04-06T15:18:15.981Z,984.4
2019-04-06T15:21:15.740Z,984.3
2019-04-06T15:24:16.356Z,984.3
2019-04-06T15:27:15.559Z,984.4
2019-04-06T15:30:15.097Z,984.3
2019-04-06T15:33:15.421Z,984.3
2019-04-06T15:36:15.631Z,984.2
2019-04-06T15:39:15.088Z,984.2
2019-04-06T15:42:15.614Z,984.2
2019-04-06T15:45:15.832Z,984.2
2019-04-06T15:48:16.045Z,984.2
2019-04-06T15:51:15.106Z,984.2
2019-04-06T15:54:15.103Z,984.2
2019-04-06T15:57:15.556Z,984.1
2019-04-06T16:00:15.134Z,984.1
2019-04-06T16:03:15.359Z,984.1
2019-04-06T16:06:15.993Z,984.1
2019-04-06T16:09:15.215Z,984.1
2019-04-06T16:12:15.760Z,984.1
2019-04-06T16:15:15.897Z,984.0
2019-04-06T16:18:15.879Z,983.9
2019-04-06T16:21:15.717Z,983.9
2019-04-06T16:24:15.565Z,983.9
2019-04-06T16:27:15.966Z,983.9
2019-04-06T16:30:15.338Z,983.9
2019-04-06T16:33:15.498Z,983.8
2019-04-06T16:36:15.552Z,983.8
2019-04-06T16:39:15.588Z,983.8
2019-04-06T16:42:15.569Z,983.8
2019-04-06T16:45:15.120Z,983.8
2019-04-06T16:48:15.636Z,983.8
2019-04-06T16:51:15.781Z,983.8
2019-04-06T16:54:15.842Z,983.8
2019-04-06T16:57:15.142Z,983.8
2019-04-06T17:00:19.003Z,983.8
2019-04-06T17:03:15.542Z,983.8
2019-04-06T17:06:15.811Z,983.8
2019-04-06T17:09:15.647Z,983.8
2019-04-06T17:12:15.407Z,983.8
2019-04-06T17:15:15.366Z,983.7
2019-04-06T17:18:15.682Z,983.8
2019-04-06T17:21:15.902Z,983.8
2019-04-06T17:24:15.439Z,983.8
2019-04-06T17:27:16.211Z,983.8
2019-04-06T17:30:15.748Z,983.7
2019-04-06T17:33:16.463Z,983.7
2019-04-06T17:36:15.845Z,983.7
2019-04-06T17:39:15.902Z,983.7
2019-04-06T17:42:15.756Z,983.7
2019-04-06T17:45:15.202Z,983.7
2019-04-06T17:48:15.977Z,983.7
2019-04-06T17:51:15.571Z,983.7
2019-04-06T17:54:15.276Z,983.7
2019-04-06T17:57:15.279Z,983.8
2019-04-06T18:00:15.818Z,983.7
2019-04-06T18:03:15.322Z,983.7
2019-04-06T18:06:16.340Z,983.7
2019-04-06T18:09:15.731Z,983.8
2019-04-06T18:12:15.389Z,983.7
2019-04-06T18:15:15.461Z,983.7
2019-04-06T18:18:16.297Z,983.7
2019-04-06T18:21:15.404Z,983.7
2019-04-06T18:24:15.699Z,983.8
2019-04-06T18:27:15.477Z,983.8
2019-04-06T18:30:15.679Z,983.8
2019-04-06T18:33:15.618Z,983.8
2019-04-06T18:36:15.237Z,983.9
2019-04-06T18:39:15.349Z,983.8
2019-04-06T18:42:15.855Z,983.8
2019-04-06T18:45:15.366Z,983.8
2019-04-06T18:48:15.782Z,983.8
2019-04-06T18:54:15.751Z,983.9
2019-04-06T18:57:16.106Z,983.9
2019-04-06T19:00:16.025Z,983.8
2019-04-06T19:03:16.728Z,983.9
2019-04-06T19:06:16.265Z,983.9
2019-04-06T19:09:23.037Z,983.9
2019-04-06T19:12:15.989Z,983.9
2019-04-06T19:15:16.113Z,983.8
2019-04-06T19:18:15.824Z,983.9
2019-04-06T19:21:15.036Z,983.8
2019-04-06T19:24:15.616Z,983.8
2019-04-06T19:27:15.223Z,983.8
2019-04-06T19:30:16.323Z,983.8
2019-04-06T19:33:23.907Z,983.8
2019-04-06T19:36:15.306Z,983.8
2019-04-06T19:39:15.413Z,983.8
2019-04-06T19:42:15.144Z,983.8
2019-04-06T19:45:15.826Z,983.9
2019-04-06T19:48:15.929Z,983.8
2019-04-06T19:51:16.136Z,983.8
2019-04-06T19:54:15.854Z,983.8
2019-04-06T19:57:15.976Z,983.7
2019-04-06T20:00:15.946Z,983.7
2019-04-06T20:03:15.809Z,983.7
2019-04-06T20:06:15.546Z,983.8
2019-04-06T20:09:15.201Z,983.8
2019-04-06T20:12:15.747Z,983.8
2019-04-06T20:15:15.525Z,983.7
2019-04-06T20:18:16.098Z,983.7
2019-04-06T20:21:16.434Z,983.8
2019-04-06T20:24:15.201Z,983.8
2019-04-06T20:27:15.996Z,983.7
2019-04-06T20:30:16.149Z,983.7
2019-04-06T20:33:15.259Z,983.8
2019-04-06T20:36:15.804Z,983.7
2019-04-06T20:39:15.908Z,983.8
2019-04-06T20:42:15.900Z,983.8
2019-04-06T20:45:15.766Z,983.7
2019-04-06T20:48:15.366Z,983.8
2019-04-06T20:51:16.365Z,983.8
2019-04-06T20:54:15.583Z,983.8
2019-04-06T20:57:15.559Z,983.8
2019-04-06T21:00:15.661Z,983.8
2019-04-06T21:03:15.757Z,983.8
2019-04-06T21:06:15.429Z,983.8
2019-04-06T21:09:15.731Z,983.8
2019-04-06T21:12:15.069Z,983.8
2019-04-06T21:15:19.934Z,983.8
2019-04-06T21:18:15.948Z,983.8
2019-04-06T21:21:15.634Z,983.8
2019-04-06T21:24:15.940Z,983.8
2019-04-06T21:27:15.978Z,983.8
2019-04-06T21:30:15.949Z,983.8
2019-04-06T21:33:15.636Z,983.8
2019-04-06T21:36:15.539Z,983.9
2019-04-06T21:39:15.650Z,983.8
2019-04-06T21:42:16.197Z,983.8
2019-04-06T21:45:15.333Z,983.8
2019-04-06T21:48:16.018Z,983.8
2019-04-06T21:51:15.896Z,983.8
2019-04-06T21:54:15.050Z,983.8
2019-04-06T21:57:15.354Z,983.8
2019-04-06T22:00:15.502Z,983.8
2019-04-06T22:03:15.626Z,983.9
2019-04-06T22:06:15.860Z,983.8
2019-04-06T22:09:15.254Z,983.8
2019-04-06T22:12:16.286Z,983.8
2019-04-06T22:15:15.395Z,983.8
2019-04-06T22:18:15.055Z,983.8
2019-04-06T22:21:16.270Z,983.8
2019-04-06T22:24:15.773Z,983.8
2019-04-06T22:27:16.047Z,983.8
2019-04-06T22:30:16.064Z,983.7
2019-04-06T22:33:15.071Z,983.8
2019-04-06T22:36:15.151Z,983.8
2019-04-06T22:39:15.406Z,983.8
2019-04-06T22:42:15.899Z,983.7
2019-04-06T22:45:15.848Z,983.7
2019-04-06T22:48:15.312Z,983.7
2019-04-06T22:51:15.116Z,983.7
2019-04-06T22:54:15.521Z,983.7
2019-04-06T22:57:15.975Z,983.7
2019-04-06T23:00:16.946Z,983.7
2019-04-06T23:03:15.925Z,983.7
2019-04-06T23:06:16.343Z,983.7
2019-04-06T23:09:15.068Z,983.7
2019-04-06T23:12:15.691Z,983.7
2019-04-06T23:15:15.653Z,983.7
2019-04-06T23:18:16.281Z,983.7
2019-04-06T23:21:15.769Z,983.7
2019-04-06T23:24:14.953Z,983.7
2019-04-06T23:27:15.008Z,983.6
2019-04-06T23:30:14.981Z,983.6
2019-04-06T23:33:15.943Z,983.6
2019-04-06T23:36:15.771Z,983.6
2019-04-06T23:39:16.134Z,983.7
2019-04-06T23:42:15.324Z,983.7
2019-04-06T23:45:15.369Z,983.6
2019-04-06T23:48:15.382Z,983.7
2019-04-06T23:51:15.528Z,983.7
2019-04-06T23:54:16.004Z,983.7
2019-04-06T23:57:15.563Z,983.7
